sensor_id;sensor_type;location;lat;lon;timestamp;temperature;humidity
6439;DHT22;3252;52.540;13.290;2024-02-16T14:10:53;20.40;98.00
6439;DHT22;3252;52.540;13.290;2024-02-16T14:12:54;22.10;91.70
6439;DHT22;3252;52.540;13.290;2024-02-16T14:14:56;22.10;92.00
6439;DHT22;3252;52.540;13.290;2024-02-16T14:16:58;22.10;92.70
6439;DHT22;3252;52.540;13.290;2024-02-16T14:19:01;22.10;93.30
6439;DHT22;3252;52.540;13.290;2024-02-16T14:21:03;22.10;93.60
6439;DHT22;3252;52.540;13.290;2024-02-16T14:23:07;22.10;93.80
6439;DHT22;3252;52.540;13.290;2024-02-16T14:25:10;22.10;93.90
6439;DHT22;3252;52.540;13.290;2024-02-16T14:27:14;22.10;94.00
6439;DHT22;3252;52.540;13.290;2024-02-16T14:29:17;22.10;94.10
6439;DHT22;3252;52.540;13.290;2024-02-16T14:31:19;22.10;94.10
6439;DHT22;3252;52.540;13.290;2024-02-16T14:33:22;22.10;94.30
6439;DHT22;3252;52.540;13.290;2024-02-16T14:35:24;22.10;94.30
6439;DHT22;3252;52.540;13.290;2024-02-16T14:37:26;22.10;94.40
6439;DHT22;3252;52.540;13.290;2024-02-16T14:39:30;22.10;94.50
6439;DHT22;3252;52.540;13.290;2024-02-16T14:41:32;22.10;94.50
6439;DHT22;3252;52.540;13.290;2024-02-16T14:43:34;22.10;94.50
6439;DHT22;3252;52.540;13.290;2024-02-16T14:45:36;22.00;94.50
6439;DHT22;3252;52.540;13.290;2024-02-16T14:47:40;22.00;94.50
6439;DHT22;3252;52.540;13.290;2024-02-16T14:49:42;22.00;94.60
6439;DHT22;3252;52.540;13.290;2024-02-16T14:51:44;22.00;94.60
6439;DHT22;3252;52.540;13.290;2024-02-16T14:53:45;22.00;94.60
6439;DHT22;3252;52.540;13.290;2024-02-16T14:55:49;22.00;94.60
6439;DHT22;3252;52.540;13.290;2024-02-16T14:57:51;22.00;94.70
6439;DHT22;3252;52.540;13.290;2024-02-16T14:59:53;22.00;94.70
6439;DHT22;3252;52.540;13.290;2024-02-16T15:01:57;22.00;94.70
6439;DHT22;3252;52.540;13.290;2024-02-16T15:03:59;22.00;94.70
6439;DHT22;3252;52.540;13.290;2024-02-16T15:06:02;22.00;94.80
6439;DHT22;3252;52.540;13.290;2024-02-16T15:08:06;21.90;94.70
6439;DHT22;3252;52.540;13.290;2024-02-16T15:10:09;22.00;94.80
6439;DHT22;3252;52.540;13.290;2024-02-16T15:12:13;21.90;94.80
6439;DHT22;3252;52.540;13.290;2024-02-16T15:14:19;21.90;94.80
6439;DHT22;3252;52.540;13.290;2024-02-16T15:16:21;21.90;94.80
6439;DHT22;3252;52.540;13.290;2024-02-16T15:18:23;21.90;94.90
6439;DHT22;3252;52.540;13.290;2024-02-16T15:20:26;21.90;94.90
6439;DHT22;3252;52.540;13.290;2024-02-16T15:22:28;21.90;95.00
6439;DHT22;3252;52.540;13.290;2024-02-16T15:24:30;21.90;95.00
6439;DHT22;3252;52.540;13.290;2024-02-16T15:26:32;21.80;95.00
6439;DHT22;3252;52.540;13.290;2024-02-16T15:28:36;21.90;95.00
6439;DHT22;3252;52.540;13.290;2024-02-16T15:30:38;21.80;95.10
6439;DHT22;3252;52.540;13.290;2024-02-16T15:32:40;21.80;95.10
6439;DHT22;3252;52.540;13.290;2024-02-16T15:34:43;21.80;95.20
6439;DHT22;3252;52.540;13.290;2024-02-16T15:36:49;21.80;95.20
6439;DHT22;3252;52.540;13.290;2024-02-16T15:38:51;21.80;95.50
6439;DHT22;3252;52.540;13.290;2024-02-16T15:40:53;21.80;95.50
6439;DHT22;3252;52.540;13.290;2024-02-16T15:42:59;21.70;95.90
6439;DHT22;3252;52.540;13.290;2024-02-16T15:45:04;21.70;95.50
6439;DHT22;3252;52.540;13.290;2024-02-16T15:47:06;21.70;95.40
6439;DHT22;3252;52.540;13.290;2024-02-16T15:49:11;21.80;95.60
6439;DHT22;3252;52.540;13.290;2024-02-16T15:51:12;21.70;95.70
6439;DHT22;3252;52.540;13.290;2024-02-16T15:53:14;21.70;95.70
6439;DHT22;3252;52.540;13.290;2024-02-16T15:55:16;21.70;95.70
6439;DHT22;3252;52.540;13.290;2024-02-16T15:57:17;21.70;95.80
6439;DHT22;3252;52.540;13.290;2024-02-16T15:59:20;21.70;95.80
6439;DHT22;3252;52.540;13.290;2024-02-16T16:01:23;21.70;95.80
6439;DHT22;3252;52.540;13.290;2024-02-16T16:03:26;21.70;95.80
6439;DHT22;3252;52.540;13.290;2024-02-16T16:05:28;21.70;95.80
6439;DHT22;3252;52.540;13.290;2024-02-16T16:07:33;21.70;95.90
6439;DHT22;3252;52.540;13.290;2024-02-16T16:09:34;21.70;95.80
6439;DHT22;3252;52.540;13.290;2024-02-16T16:11:36;21.70;95.80
6439;DHT22;3252;52.540;13.290;2024-02-16T16:13:40;21.70;95.80
6439;DHT22;3252;52.540;13.290;2024-02-16T16:15:42;21.70;95.80
6439;DHT22;3252;52.540;13.290;2024-02-16T16:17:47;21.70;95.80
6439;DHT22;3252;52.540;13.290;2024-02-16T16:19:49;21.70;95.80
6439;DHT22;3252;52.540;13.290;2024-02-16T16:21:50;21.70;95.70
6439;DHT22;3252;52.540;13.290;2024-02-16T16:23:53;21.70;95.70
6439;DHT22;3252;52.540;13.290;2024-02-16T16:25:55;21.70;95.70
6439;DHT22;3252;52.540;13.290;2024-02-16T16:27:57;21.70;95.80
6439;DHT22;3252;52.540;13.290;2024-02-16T16:29:59;21.70;95.70
6439;DHT22;3252;52.540;13.290;2024-02-16T16:32:00;21.80;96.00
6439;DHT22;3252;52.540;13.290;2024-02-16T16:34:06;21.70;95.70
6439;DHT22;3252;52.540;13.290;2024-02-16T16:36:09;21.80;95.70
6439;DHT22;3252;52.540;13.290;2024-02-16T16:38:14;21.80;95.70
6439;DHT22;3252;52.540;13.290;2024-02-16T16:40:17;21.80;95.60
6439;DHT22;3252;52.540;13.290;2024-02-16T16:42:19;21.80;95.60
6439;DHT22;3252;52.540;13.290;2024-02-16T16:44:21;21.80;95.60
6439;DHT22;3252;52.540;13.290;2024-02-16T16:46:26;21.80;95.60
6439;DHT22;3252;52.540;13.290;2024-02-16T16:48:27;21.80;95.60
6439;DHT22;3252;52.540;13.290;2024-02-16T16:50:31;21.80;95.60
6439;DHT22;3252;52.540;13.290;2024-02-16T16:52:33;21.80;95.60
6439;DHT22;3252;52.540;13.290;2024-02-16T16:54:35;21.80;95.60
6439;DHT22;3252;52.540;13.290;2024-02-16T16:56:38;21.80;95.50
6439;DHT22;3252;52.540;13.290;2024-02-16T16:58:40;21.80;95.50
6439;DHT22;3252;52.540;13.290;2024-02-16T17:00:41;21.80;95.50
6439;DHT22;3252;52.540;13.290;2024-02-16T17:02:43;21.90;95.50
6439;DHT22;3252;52.540;13.290;2024-02-16T17:04:46;21.80;95.40
6439;DHT22;3252;52.540;13.290;2024-02-16T17:06:50;21.90;95.50
6439;DHT22;3252;52.540;13.290;2024-02-16T17:08:52;21.90;95.50
6439;DHT22;3252;52.540;13.290;2024-02-16T17:10:54;21.90;95.50
6439;DHT22;3252;52.540;13.290;2024-02-16T17:12:56;21.80;95.50
6439;DHT22;3252;52.540;13.290;2024-02-16T17:14:58;21.80;95.50
6439;DHT22;3252;52.540;13.290;2024-02-16T17:17:01;21.80;95.50
6439;DHT22;3252;52.540;13.290;2024-02-16T17:19:03;21.80;95.50
6439;DHT22;3252;52.540;13.290;2024-02-16T17:21:04;21.80;95.60
6439;DHT22;3252;52.540;13.290;2024-02-16T17:23:08;21.80;95.50
6439;DHT22;3252;52.540;13.290;2024-02-16T17:25:10;21.80;95.60
6439;DHT22;3252;52.540;13.290;2024-02-16T17:27:12;21.80;95.60
6439;DHT22;3252;52.540;13.290;2024-02-16T17:29:17;21.70;95.60
6439;DHT22;3252;52.540;13.290;2024-02-16T17:31:19;21.70;95.60
6439;DHT22;3252;52.540;13.290;2024-02-16T17:33:21;21.70;95.60
6439;DHT22;3252;52.540;13.290;2024-02-16T17:35:23;21.70;95.90
6439;DHT22;3252;52.540;13.290;2024-02-16T17:37:25;21.70;95.70
6439;DHT22;3252;52.540;13.290;2024-02-16T17:39:28;21.70;95.70
6439;DHT22;3252;52.540;13.290;2024-02-16T17:41:30;21.70;95.70
6439;DHT22;3252;52.540;13.290;2024-02-16T17:43:33;21.60;95.60
6439;DHT22;3252;52.540;13.290;2024-02-16T17:45:37;21.60;95.60
6439;DHT22;3252;52.540;13.290;2024-02-16T17:47:38;21.60;95.90
6439;DHT22;3252;52.540;13.290;2024-02-16T17:49:40;21.60;96.10
6439;DHT22;3252;52.540;13.290;2024-02-16T17:51:41;21.60;96.00
6439;DHT22;3252;52.540;13.290;2024-02-16T17:53:44;21.60;96.10
6439;DHT22;3252;52.540;13.290;2024-02-16T17:55:47;21.50;96.10
6439;DHT22;3252;52.540;13.290;2024-02-16T17:57:50;21.50;96.10
6439;DHT22;3252;52.540;13.290;2024-02-16T17:59:52;21.50;96.10
6439;DHT22;3252;52.540;13.290;2024-02-16T18:01:54;21.50;96.20
6439;DHT22;3252;52.540;13.290;2024-02-16T18:03:56;21.40;96.10
6439;DHT22;3252;52.540;13.290;2024-02-16T18:05:59;21.40;96.20
6439;DHT22;3252;52.540;13.290;2024-02-16T18:08:01;21.40;96.20
6439;DHT22;3252;52.540;13.290;2024-02-16T18:10:03;21.40;96.20
6439;DHT22;3252;52.540;13.290;2024-02-16T18:12:08;21.40;96.20
6439;DHT22;3252;52.540;13.290;2024-02-16T18:14:09;21.30;96.20
6439;DHT22;3252;52.540;13.290;2024-02-16T18:16:11;21.30;96.30
6439;DHT22;3252;52.540;13.290;2024-02-16T18:18:14;21.30;96.30
6439;DHT22;3252;52.540;13.290;2024-02-16T18:20:15;21.30;96.30
6439;DHT22;3252;52.540;13.290;2024-02-16T18:22:17;21.30;96.40
6439;DHT22;3252;52.540;13.290;2024-02-16T18:24:18;21.30;96.40
6439;DHT22;3252;52.540;13.290;2024-02-16T18:26:21;21.20;96.40
6439;DHT22;3252;52.540;13.290;2024-02-16T18:28:24;21.20;96.40
6439;DHT22;3252;52.540;13.290;2024-02-16T18:30:26;21.20;96.50
6439;DHT22;3252;52.540;13.290;2024-02-16T18:32:29;21.20;96.50
6439;DHT22;3252;52.540;13.290;2024-02-16T18:34:31;21.20;96.50
6439;DHT22;3252;52.540;13.290;2024-02-16T18:36:33;21.20;96.60
6439;DHT22;3252;52.540;13.290;2024-02-16T18:38:35;21.10;96.60
6439;DHT22;3252;52.540;13.290;2024-02-16T18:40:38;21.10;96.60
6439;DHT22;3252;52.540;13.290;2024-02-16T18:42:40;21.10;96.60
6439;DHT22;3252;52.540;13.290;2024-02-16T18:44:44;21.10;96.60
6439;DHT22;3252;52.540;13.290;2024-02-16T18:46:48;21.10;96.70
6439;DHT22;3252;52.540;13.290;2024-02-16T18:48:50;21.00;96.70
6439;DHT22;3252;52.540;13.290;2024-02-16T18:50:53;21.00;96.70
6439;DHT22;3252;52.540;13.290;2024-02-16T18:52:55;21.00;96.70
6439;DHT22;3252;52.540;13.290;2024-02-16T18:54:57;21.00;96.70
6439;DHT22;3252;52.540;13.290;2024-02-16T18:56:59;21.00;96.70
6439;DHT22;3252;52.540;13.290;2024-02-16T18:59:01;21.00;96.70
6439;DHT22;3252;52.540;13.290;2024-02-16T19:01:05;21.00;96.80
6439;DHT22;3252;52.540;13.290;2024-02-16T19:03:07;20.90;96.80
6439;DHT22;3252;52.540;13.290;2024-02-16T19:05:10;20.90;96.80
6439;DHT22;3252;52.540;13.290;2024-02-16T19:07:13;20.90;96.80
6439;DHT22;3252;52.540;13.290;2024-02-16T19:09:16;20.90;96.80
6439;DHT22;3252;52.540;13.290;2024-02-16T19:11:18;20.90;96.80
6439;DHT22;3252;52.540;13.290;2024-02-16T19:13:21;20.90;96.90
6439;DHT22;3252;52.540;13.290;2024-02-16T19:15:23;21.00;96.80
6439;DHT22;3252;52.540;13.290;2024-02-16T19:17:29;21.00;96.80
6439;DHT22;3252;52.540;13.290;2024-02-16T19:19:31;21.00;96.80
6439;DHT22;3252;52.540;13.290;2024-02-16T19:21:32;21.00;96.80
6439;DHT22;3252;52.540;13.290;2024-02-16T19:23:34;21.10;96.80
6439;DHT22;3252;52.540;13.290;2024-02-16T19:25:37;21.10;96.70
6439;DHT22;3252;52.540;13.290;2024-02-16T19:27:39;21.10;96.60
6439;DHT22;3252;52.540;13.290;2024-02-16T19:29:41;21.10;96.60
6439;DHT22;3252;52.540;13.290;2024-02-16T19:31:43;21.20;96.60
6439;DHT22;3252;52.540;13.290;2024-02-16T19:33:46;21.20;96.60
6439;DHT22;3252;52.540;13.290;2024-02-16T19:35:49;21.20;96.50
6439;DHT22;3252;52.540;13.290;2024-02-16T19:37:53;21.20;96.50
6439;DHT22;3252;52.540;13.290;2024-02-16T19:39:55;21.20;96.50
6439;DHT22;3252;52.540;13.290;2024-02-16T19:41:57;21.20;96.50
6439;DHT22;3252;52.540;13.290;2024-02-16T19:43:59;21.20;96.50
6439;DHT22;3252;52.540;13.290;2024-02-16T19:46:02;21.20;96.40
6439;DHT22;3252;52.540;13.290;2024-02-16T19:48:05;21.30;96.50
6439;DHT22;3252;52.540;13.290;2024-02-16T19:50:09;21.20;96.40
6439;DHT22;3252;52.540;13.290;2024-02-16T19:52:12;21.20;96.30
6439;DHT22;3252;52.540;13.290;2024-02-16T19:54:19;21.30;96.40
6439;DHT22;3252;52.540;13.290;2024-02-16T19:56:21;21.30;96.30
6439;DHT22;3252;52.540;13.290;2024-02-16T19:58:22;21.30;96.30
6439;DHT22;3252;52.540;13.290;2024-02-16T20:00:25;21.30;96.30
6439;DHT22;3252;52.540;13.290;2024-02-16T20:02:28;21.30;96.30
6439;DHT22;3252;52.540;13.290;2024-02-16T20:04:30;21.30;96.30
6439;DHT22;3252;52.540;13.290;2024-02-16T20:06:34;21.30;96.30
6439;DHT22;3252;52.540;13.290;2024-02-16T20:08:36;21.40;96.30
6439;DHT22;3252;52.540;13.290;2024-02-16T20:10:39;21.30;96.20
6439;DHT22;3252;52.540;13.290;2024-02-16T20:12:41;21.40;96.20
6439;DHT22;3252;52.540;13.290;2024-02-16T20:14:43;21.40;96.20
6439;DHT22;3252;52.540;13.290;2024-02-16T20:16:45;21.40;96.30
6439;DHT22;3252;52.540;13.290;2024-02-16T20:18:48;21.40;96.30
6439;DHT22;3252;52.540;13.290;2024-02-16T20:20:50;21.40;96.30
6439;DHT22;3252;52.540;13.290;2024-02-16T20:22:53;21.40;96.20
6439;DHT22;3252;52.540;13.290;2024-02-16T20:24:57;21.40;96.20
6439;DHT22;3252;52.540;13.290;2024-02-16T20:26:58;21.40;96.20
6439;DHT22;3252;52.540;13.290;2024-02-16T20:29:02;21.40;96.20
6439;DHT22;3252;52.540;13.290;2024-02-16T20:31:04;21.50;96.30
6439;DHT22;3252;52.540;13.290;2024-02-16T20:33:09;21.50;96.30
6439;DHT22;3252;52.540;13.290;2024-02-16T20:35:12;21.50;96.30
6439;DHT22;3252;52.540;13.290;2024-02-16T20:37:14;21.50;96.20
6439;DHT22;3252;52.540;13.290;2024-02-16T20:39:16;21.50;96.20
6439;DHT22;3252;52.540;13.290;2024-02-16T20:41:19;21.50;96.10
6439;DHT22;3252;52.540;13.290;2024-02-16T20:43:21;21.50;96.10
6439;DHT22;3252;52.540;13.290;2024-02-16T20:45:23;21.50;96.20
6439;DHT22;3252;52.540;13.290;2024-02-16T20:47:25;21.50;96.20
6439;DHT22;3252;52.540;13.290;2024-02-16T20:49:27;21.50;96.20
6439;DHT22;3252;52.540;13.290;2024-02-16T20:51:29;21.50;96.20
6439;DHT22;3252;52.540;13.290;2024-02-16T20:53:32;21.50;96.20
6439;DHT22;3252;52.540;13.290;2024-02-16T20:55:35;21.50;96.20
6439;DHT22;3252;52.540;13.290;2024-02-16T20:57:37;21.50;96.20
6439;DHT22;3252;52.540;13.290;2024-02-16T20:59:39;21.50;96.20
6439;DHT22;3252;52.540;13.290;2024-02-16T21:01:41;21.50;96.20
6439;DHT22;3252;52.540;13.290;2024-02-16T21:03:43;21.50;96.20
6439;DHT22;3252;52.540;13.290;2024-02-16T21:05:46;21.40;96.20
6439;DHT22;3252;52.540;13.290;2024-02-16T21:07:48;21.40;96.20
6439;DHT22;3252;52.540;13.290;2024-02-16T21:09:50;21.40;96.20
6439;DHT22;3252;52.540;13.290;2024-02-16T21:11:55;21.40;96.20
6439;DHT22;3252;52.540;13.290;2024-02-16T21:13:57;21.50;96.20
6439;DHT22;3252;52.540;13.290;2024-02-16T21:15:59;21.40;96.20
6439;DHT22;3252;52.540;13.290;2024-02-16T21:18:01;21.40;96.20
6439;DHT22;3252;52.540;13.290;2024-02-16T21:20:04;21.40;96.30
6439;DHT22;3252;52.540;13.290;2024-02-16T21:22:07;21.40;96.30
6439;DHT22;3252;52.540;13.290;2024-02-16T21:24:09;21.40;96.30
6439;DHT22;3252;52.540;13.290;2024-02-16T21:26:11;21.40;96.30
6439;DHT22;3252;52.540;13.290;2024-02-16T21:28:14;21.50;96.30
6439;DHT22;3252;52.540;13.290;2024-02-16T21:30:17;21.40;96.20
6439;DHT22;3252;52.540;13.290;2024-02-16T21:32:19;21.40;96.20
6439;DHT22;3252;52.540;13.290;2024-02-16T21:34:21;21.40;96.20
6439;DHT22;3252;52.540;13.290;2024-02-16T21:36:22;21.50;96.30
6439;DHT22;3252;52.540;13.290;2024-02-16T21:38:26;21.50;96.30
6439;DHT22;3252;52.540;13.290;2024-02-16T21:40:28;21.50;96.40
6439;DHT22;3252;52.540;13.290;2024-02-16T21:42:34;21.50;96.30
6439;DHT22;3252;52.540;13.290;2024-02-16T21:44:36;21.50;96.30
6439;DHT22;3252;52.540;13.290;2024-02-16T21:46:41;21.50;96.30
6439;DHT22;3252;52.540;13.290;2024-02-16T21:48:43;21.50;96.30
6439;DHT22;3252;52.540;13.290;2024-02-16T21:50:45;21.50;96.30
6439;DHT22;3252;52.540;13.290;2024-02-16T21:52:47;21.50;96.30
6439;DHT22;3252;52.540;13.290;2024-02-16T21:54:49;21.50;96.30
6439;DHT22;3252;52.540;13.290;2024-02-16T21:56:51;21.50;96.30
6439;DHT22;3252;52.540;13.290;2024-02-16T21:58:53;21.50;96.30
6439;DHT22;3252;52.540;13.290;2024-02-16T22:00:57;21.40;96.20
6439;DHT22;3252;52.540;13.290;2024-02-16T22:03:00;21.40;96.20
6439;DHT22;3252;52.540;13.290;2024-02-16T22:05:04;21.40;96.20
6439;DHT22;3252;52.540;13.290;2024-02-16T22:07:06;21.40;96.20
6439;DHT22;3252;52.540;13.290;2024-02-16T22:09:09;21.40;96.20
6439;DHT22;3252;52.540;13.290;2024-02-16T22:11:11;21.40;96.30
6439;DHT22;3252;52.540;13.290;2024-02-16T22:13:13;21.40;96.30
6439;DHT22;3252;52.540;13.290;2024-02-16T22:15:15;21.40;96.30
6439;DHT22;3252;52.540;13.290;2024-02-16T22:17:18;21.30;96.30
6439;DHT22;3252;52.540;13.290;2024-02-16T22:19:21;21.30;96.30
6439;DHT22;3252;52.540;13.290;2024-02-16T22:21:26;21.30;96.40
6439;DHT22;3252;52.540;13.290;2024-02-16T22:23:28;21.30;96.40
6439;DHT22;3252;52.540;13.290;2024-02-16T22:25:29;21.30;96.40
6439;DHT22;3252;52.540;13.290;2024-02-16T22:27:32;21.30;96.40
6439;DHT22;3252;52.540;13.290;2024-02-16T22:29:35;21.20;96.40
6439;DHT22;3252;52.540;13.290;2024-02-16T22:31:37;21.20;96.50
6439;DHT22;3252;52.540;13.290;2024-02-16T22:33:40;21.20;96.50
6439;DHT22;3252;52.540;13.290;2024-02-16T22:35:42;21.20;96.50
6439;DHT22;3252;52.540;13.290;2024-02-16T22:37:44;21.20;96.60
6439;DHT22;3252;52.540;13.290;2024-02-16T22:39:46;21.20;96.60
6439;DHT22;3252;52.540;13.290;2024-02-16T22:41:48;21.10;96.60
6439;DHT22;3252;52.540;13.290;2024-02-16T22:43:50;21.20;96.60
6439;DHT22;3252;52.540;13.290;2024-02-16T22:45:52;21.10;96.60
6439;DHT22;3252;52.540;13.290;2024-02-16T22:47:54;21.10;96.60
6439;DHT22;3252;52.540;13.290;2024-02-16T22:49:58;21.10;96.70
6439;DHT22;3252;52.540;13.290;2024-02-16T22:52:00;21.10;96.70
6439;DHT22;3252;52.540;13.290;2024-02-16T22:54:04;21.10;96.70
6439;DHT22;3252;52.540;13.290;2024-02-16T22:56:06;21.10;96.70
6439;DHT22;3252;52.540;13.290;2024-02-16T22:58:09;21.00;96.70
6439;DHT22;3252;52.540;13.290;2024-02-16T23:00:12;21.00;96.70
6439;DHT22;3252;52.540;13.290;2024-02-16T23:02:23;21.00;96.80
6439;DHT22;3252;52.540;13.290;2024-02-16T23:04:25;21.00;97.10
6439;DHT22;3252;52.540;13.290;2024-02-16T23:06:29;20.90;96.80
6439;DHT22;3252;52.540;13.290;2024-02-16T23:08:31;21.00;96.90
6439;DHT22;3252;52.540;13.290;2024-02-16T23:10:35;20.90;96.80
6439;DHT22;3252;52.540;13.290;2024-02-16T23:12:39;20.90;96.90
6439;DHT22;3252;52.540;13.290;2024-02-16T23:14:43;20.90;96.90
6439;DHT22;3252;52.540;13.290;2024-02-16T23:16:45;20.90;96.90
6439;DHT22;3252;52.540;13.290;2024-02-16T23:18:47;20.90;97.00
6439;DHT22;3252;52.540;13.290;2024-02-16T23:20:49;20.80;96.90
6439;DHT22;3252;52.540;13.290;2024-02-16T23:23:00;20.80;97.00
6439;DHT22;3252;52.540;13.290;2024-02-16T23:25:03;20.80;97.00
6439;DHT22;3252;52.540;13.290;2024-02-16T23:27:05;20.80;97.00
6439;DHT22;3252;52.540;13.290;2024-02-16T23:29:08;20.80;97.10
6439;DHT22;3252;52.540;13.290;2024-02-16T23:31:12;20.80;97.10
6439;DHT22;3252;52.540;13.290;2024-02-16T23:33:14;20.70;97.00
6439;DHT22;3252;52.540;13.290;2024-02-16T23:35:16;20.80;97.10
6439;DHT22;3252;52.540;13.290;2024-02-16T23:37:18;20.70;97.10
6439;DHT22;3252;52.540;13.290;2024-02-16T23:39:21;20.70;97.10
6439;DHT22;3252;52.540;13.290;2024-02-16T23:41:22;20.70;97.10
6439;DHT22;3252;52.540;13.290;2024-02-16T23:43:25;20.70;97.10
6439;DHT22;3252;52.540;13.290;2024-02-16T23:45:32;20.70;97.10
6439;DHT22;3252;52.540;13.290;2024-02-16T23:47:34;20.70;97.10
6439;DHT22;3252;52.540;13.290;2024-02-16T23:49:35;20.70;97.20
6439;DHT22;3252;52.540;13.290;2024-02-16T23:51:37;20.70;97.20
6439;DHT22;3252;52.540;13.290;2024-02-16T23:53:39;20.70;97.20
6439;DHT22;3252;52.540;13.290;2024-02-16T23:55:43;20.60;97.20
6439;DHT22;3252;52.540;13.290;2024-02-16T23:57:45;20.60;97.20
6439;DHT22;3252;52.540;13.290;2024-02-16T23:59:46;20.70;97.20
